Time;durP1;ratioP1;P1;durP2;ratioP2;P2;SDS_P1;SDS_P2;PMS_P1;PMS_P2;Temp;Humidity;BMP_temperature;BMP_pressure;BME280_temperature;BME280_humidity;BME280_pressure;Samples;Min_cycle;Max_cycle;Signal;HPM_P1;HPM_P2
2023/12/29 00:01:41;;;;;;;3.85;0.98;;;;;;;11.39;70.04;100595.06;5031130;27;101810;-72
2023/12/29 00:04:07;;;;;;;3.13;1.13;;;;;;;11.13;70.90;100590.84;5026218;27;99022;-71
2023/12/29 00:06:34;;;;;;;3.95;1.15;;;;;;;11.22;70.76;100592.25;5034252;27;99020;-72
2023/12/29 00:09:01;;;;;;;2.35;1.35;;;;;;;11.34;70.45;100588.25;5029356;27;97055;-72
2023/12/29 00:11:27;;;;;;;3.28;1.10;;;;;;;11.52;69.78;100601.56;5031640;27;101940;-72
2023/12/29 00:13:56;;;;;;;4.10;1.30;;;;;;;11.49;69.77;100596.38;5031643;27;100561;-73
2023/12/29 00:16:23;;;;;;;1.58;0.98;;;;;;;10.93;72.29;100581.97;5025397;27;97090;-71
2023/12/29 00:18:49;;;;;;;2.58;1.20;;;;;;;11.17;71.38;100579.19;5029021;27;97396;-71
2023/12/29 00:21:15;;;;;;;3.15;1.13;;;;;;;11.02;71.92;100571.91;5029037;27;99471;-72
2023/12/29 00:23:42;;;;;;;2.28;0.90;;;;;;;11.21;71.42;100561.44;5031669;27;97757;-70
2023/12/29 00:26:08;;;;;;;5.50;1.10;;;;;;;11.21;71.30;100560.56;5037668;27;97149;-71
2023/12/29 00:28:36;;;;;;;2.50;0.95;;;;;;;11.23;70.79;100562.22;5023573;27;97245;-70
2023/12/29 00:31:05;;;;;;;8.10;1.08;;;;;;;11.25;70.45;100565.66;5030021;27;97921;-71
2023/12/29 00:33:31;;;;;;;2.67;1.05;;;;;;;11.31;70.33;100567.19;5030962;27;98817;-72
2023/12/29 00:35:58;;;;;;;3.45;1.30;;;;;;;11.52;69.70;100559.22;5021250;27;96801;-72
2023/12/29 00:38:27;;;;;;;2.95;0.98;;;;;;;11.39;69.84;100565.97;5031218;27;97185;-72
2023/12/29 00:40:54;;;;;;;7.43;1.10;;;;;;;11.32;70.29;100555.69;5022930;27;99005;-72
2023/12/29 00:43:20;;;;;;;2.55;1.10;;;;;;;11.45;69.29;100549.81;5030096;27;98100;-72
2023/12/29 00:45:47;;;;;;;4.72;0.90;;;;;;;11.59;68.60;100552.75;5030836;27;97215;-72
2023/12/29 00:48:15;;;;;;;4.70;0.90;;;;;;;11.53;69.02;100542.44;5031013;27;97023;-72
2023/12/29 00:50:43;;;;;;;4.70;1.13;;;;;;;11.64;68.16;100554.31;5029981;27;97824;-72
2023/12/29 00:53:09;;;;;;;3.83;0.82;;;;;;;11.29;69.21;100547.91;5030519;27;98115;-72
2023/12/29 00:55:36;;;;;;;5.25;1.20;;;;;;;11.42;68.96;100544.66;5032605;27;96713;-74
2023/12/29 00:58:08;;;;;;;2.47;1.00;;;;;;;11.33;68.91;100545.06;5029011;27;97951;-72
2023/12/29 01:00:34;;;;;;;3.50;0.90;;;;;;;11.53;68.15;100536.28;5023966;27;99327;-73
2023/12/29 01:03:01;;;;;;;5.35;0.77;;;;;;;11.27;68.93;100533.88;5030490;27;97715;-74
2023/12/29 01:05:29;;;;;;;4.35;1.20;;;;;;;11.04;70.28;100545.38;5030779;27;97587;-73
2023/12/29 01:07:55;;;;;;;5.15;1.02;;;;;;;11.23;69.52;100534.91;5031194;27;98829;-73
2023/12/29 01:10:22;;;;;;;7.20;1.05;;;;;;;11.17;69.64;100528.06;5029550;27;99155;-73
2023/12/29 01:12:48;;;;;;;4.97;1.23;;;;;;;11.31;68.81;100525.72;5030817;27;98811;-73
2023/12/29 01:15:15;;;;;;;1.98;0.90;;;;;;;11.46;68.18;100529.53;5028269;27;97075;-73
2023/12/29 01:17:41;;;;;;;3.20;1.15;;;;;;;11.20;69.21;100517.38;5027128;27;99989;-72
2023/12/29 01:20:09;;;;;;;2.15;1.10;;;;;;;11.31;68.79;100514.28;5030767;27;99044;-72
2023/12/29 01:22:36;;;;;;;1.55;0.75;;;;;;;11.24;68.72;100508.38;5029023;27;99028;-72
2023/12/29 01:25:03;;;;;;;3.45;2.10;;;;;;;11.01;69.99;100505.84;5030819;27;99208;-72
2023/12/29 01:27:30;;;;;;;3.25;1.00;;;;;;;10.87;70.35;100503.78;5025776;27;97356;-68
2023/12/29 01:29:56;;;;;;;2.63;1.15;;;;;;;10.87;70.47;100500.25;5027172;27;98900;-70
2023/12/29 01:32:23;;;;;;;4.45;1.10;;;;;;;11.06;69.91;100498.59;5029621;27;99100;-69
2023/12/29 01:34:50;;;;;;;1.42;0.85;;;;;;;11.11;69.49;100497.47;5030396;27;97097;-69
2023/12/29 01:37:19;;;;;;;1.63;1.02;;;;;;;11.29;68.65;100495.81;5022246;27;97030;-69
2023/12/29 01:39:46;;;;;;;5.57;1.10;;;;;;;11.24;68.79;100500.47;5024182;27;98908;-70
2023/12/29 01:42:13;;;;;;;6.47;1.48;;;;;;;11.18;69.05;100501.56;5032573;27;98823;-69
2023/12/29 01:44:39;;;;;;;2.60;0.82;;;;;;;11.27;68.52;100492.41;5031915;27;96910;-69
2023/12/29 01:47:14;;;;;;;1.80;0.80;;;;;;;11.11;69.14;100500.09;5021459;27;96772;-69
2023/12/29 01:49:41;;;;;;;2.78;1.08;;;;;;;11.28;69.02;100494.13;5023767;27;97636;-70
2023/12/29 01:52:08;;;;;;;2.55;1.17;;;;;;;11.40;68.43;100490.97;5022029;27;99414;-69
2023/12/29 01:54:37;;;;;;;3.30;1.15;;;;;;;11.39;67.98;100483.94;5023915;27;97935;-69
2023/12/29 01:57:07;;;;;;;4.97;1.35;;;;;;;11.53;67.48;100475.41;5016741;27;97262;-68
2023/12/29 01:59:35;;;;;;;2.03;0.93;;;;;;;11.12;68.36;100466.59;5026049;27;99011;-69
2023/12/29 02:02:02;;;;;;;4.15;0.95;;;;;;;11.03;69.53;100469.59;5024953;27;98751;-69
2023/12/29 02:04:29;;;;;;;3.50;0.98;;;;;;;11.07;69.03;100463.28;5033011;27;96647;-69
2023/12/29 02:06:56;;;;;;;3.70;0.93;;;;;;;11.04;69.20;100473.97;5031379;27;97087;-69
2023/12/29 02:09:22;;;;;;;3.70;1.23;;;;;;;11.12;69.44;100470.09;5029702;27;97757;-69
2023/12/29 02:11:49;;;;;;;3.63;1.00;;;;;;;11.11;69.18;100467.50;5031931;27;99049;-69
2023/12/29 02:14:18;;;;;;;2.78;1.10;;;;;;;11.11;69.23;100460.44;5028498;27;96962;-69
2023/12/29 02:16:53;;;;;;;2.85;1.00;;;;;;;11.00;70.05;100467.13;5018970;27;96776;-69
2023/12/29 02:19:32;;;;;;;3.20;1.30;;;;;;;11.05;69.55;100454.56;5028179;27;101111;-69
2023/12/29 02:21:58;;;;;;;4.72;1.08;;;;;;;11.21;69.26;100460.94;5021078;27;99876;-69
2023/12/29 02:24:24;;;;;;;3.50;1.33;;;;;;;11.22;69.14;100460.00;5026642;27;97889;-69
2023/12/29 02:27:04;;;;;;;2.75;0.88;;;;;;;10.76;70.35;100440.75;5023783;27;97652;-69
2023/12/29 02:29:32;;;;;;;4.65;1.38;;;;;;;10.76;71.26;100438.09;5026337;27;101157;-69
2023/12/29 02:32:00;;;;;;;2.58;1.00;;;;;;;10.77;71.17;100423.97;5027754;27;99909;-69
2023/12/29 02:34:30;;;;;;;3.40;1.20;;;;;;;11.16;69.55;100428.50;5023553;27;98414;-69
2023/12/29 02:36:57;;;;;;;1.85;1.17;;;;;;;11.04;70.35;100436.97;5023981;27;96859;-69
2023/12/29 02:39:23;;;;;;;4.32;1.35;;;;;;;11.31;68.79;100430.50;5029115;27;98250;-69
2023/12/29 02:41:51;;;;;;;2.80;1.02;;;;;;;11.32;68.77;100421.66;5027022;27;98777;-69
2023/12/29 02:44:17;;;;;;;1.77;1.00;;;;;;;10.99;70.06;100428.38;5025360;27;97090;-69
2023/12/29 02:46:44;;;;;;;2.45;1.20;;;;;;;10.95;70.28;100426.78;5020839;27;96962;-70
2023/12/29 02:49:12;;;;;;;2.38;1.10;;;;;;;11.11;70.10;100419.91;5021888;27;99748;-69
2023/12/29 02:51:39;;;;;;;3.55;1.33;;;;;;;11.10;70.00;100415.53;5026689;27;98768;-70
2023/12/29 02:54:06;;;;;;;2.67;1.15;;;;;;;11.27;69.21;100412.19;5023574;27;96802;-70
2023/12/29 02:56:32;;;;;;;3.63;1.02;;;;;;;11.07;70.00;100411.28;5024862;27;99928;-70
2023/12/29 02:59:00;;;;;;;3.08;0.80;;;;;;;11.32;69.20;100399.63;5026270;27;98383;-70
2023/12/29 03:01:28;;;;;;;3.33;1.10;;;;;;;11.26;69.04;100406.03;5022743;27;98952;-70
2023/12/29 03:03:55;;;;;;;2.90;0.80;;;;;;;10.95;70.58;100398.56;5026087;27;97331;-69
2023/12/29 03:06:21;;;;;;;1.95;0.88;;;;;;;11.13;69.68;100402.22;5020476;27;98223;-69
2023/12/29 03:08:47;;;;;;;6.25;0.88;;;;;;;11.01;69.76;100402.75;5018902;27;99133;-69
2023/12/29 03:11:14;;;;;;;5.18;1.40;;;;;;;11.31;69.18;100397.91;5027549;27;102215;-69
2023/12/29 03:13:40;;;;;;;1.90;0.95;;;;;;;11.20;69.37;100398.38;5022889;27;97369;-69
2023/12/29 03:16:08;;;;;;;2.97;1.05;;;;;;;11.16;69.38;100397.63;5020772;27;96855;-69
2023/12/29 03:18:38;;;;;;;3.63;1.45;;;;;;;11.20;69.40;100393.09;5022011;27;98857;-69
2023/12/29 03:21:04;;;;;;;1.30;0.90;;;;;;;11.19;69.10;100397.50;5026565;27;100464;-69
2023/12/29 03:23:31;;;;;;;2.85;1.10;;;;;;;11.09;69.43;100390.06;5012701;27;97187;-69
2023/12/29 03:25:57;;;;;;;3.13;0.98;;;;;;;11.41;68.46;100393.94;5025631;27;96969;-69
2023/12/29 03:28:23;;;;;;;2.65;0.90;;;;;;;11.15;69.42;100403.00;5028060;27;98818;-69
2023/12/29 03:30:50;;;;;;;2.10;0.90;;;;;;;11.41;68.28;100399.22;5031974;27;99977;-69
2023/12/29 03:33:17;;;;;;;3.40;1.00;;;;;;;11.46;68.18;100384.88;5022286;27;96861;-69
2023/12/29 03:35:44;;;;;;;2.45;0.90;;;;;;;11.49;68.08;100387.34;5026142;27;98542;-69
2023/12/29 03:38:10;;;;;;;3.42;0.98;;;;;;;11.36;68.39;100383.53;5026945;27;99065;-70
2023/12/29 03:40:36;;;;;;;3.17;0.93;;;;;;;11.50;67.73;100378.50;5032293;27;99351;-71
2023/12/29 03:43:03;;;;;;;2.55;1.00;;;;;;;11.56;67.52;100377.34;5028069;27;97625;-70
2023/12/29 03:45:29;;;;;;;2.47;0.90;;;;;;;11.54;67.69;100377.44;5029819;27;97068;-71
2023/12/29 03:47:56;;;;;;;1.27;0.80;;;;;;;11.46;67.64;100376.94;5028014;27;99366;-70
2023/12/29 03:50:24;;;;;;;1.08;0.82;;;;;;;11.30;68.63;100365.28;5023919;27;98861;-70
2023/12/29 03:52:50;;;;;;;2.42;0.80;;;;;;;11.38;68.28;100360.53;5024832;27;97059;-68
2023/12/29 03:55:16;;;;;;;2.22;1.08;;;;;;;11.45;67.40;100354.03;5025720;27;96917;-69
2023/12/29 03:57:43;;;;;;;2.78;1.10;;;;;;;11.29;68.50;100371.50;5022989;27;101341;-69
2023/12/29 04:00:13;;;;;;;1.73;0.80;;;;;;;11.51;68.13;100376.72;5021422;27;97819;-70
2023/12/29 04:02:39;;;;;;;2.30;0.85;;;;;;;11.59;67.62;100372.78;5027929;27;96840;-69
2023/12/29 04:05:08;;;;;;;3.78;1.00;;;;;;;11.49;67.95;100355.59;5023108;27;96951;-69
2023/12/29 04:07:35;;;;;;;2.25;0.90;;;;;;;11.55;67.42;100350.03;5028339;27;102316;-70
2023/12/29 04:10:02;;;;;;;3.13;1.38;;;;;;;11.75;66.93;100351.78;5029596;27;99295;-69
2023/12/29 04:12:28;;;;;;;1.58;0.82;;;;;;;11.95;66.10;100343.78;5030859;27;97532;-70
2023/12/29 04:14:55;;;;;;;2.45;0.80;;;;;;;12.08;65.31;100340.56;5018518;27;97235;-70
2023/12/29 04:17:21;;;;;;;2.08;0.98;;;;;;;12.26;64.83;100342.31;5027433;27;99346;-71
2023/12/29 04:19:47;;;;;;;2.80;0.98;;;;;;;11.81;65.80;100340.94;5020380;27;97881;-71
2023/12/29 04:22:14;;;;;;;4.53;0.80;;;;;;;11.62;66.63;100324.16;5029469;27;96765;-71
2023/12/29 04:24:41;;;;;;;2.10;0.80;;;;;;;11.62;67.12;100329.44;5031927;27;97012;-69
2023/12/29 04:27:08;;;;;;;2.53;1.10;;;;;;;11.71;66.71;100320.22;5022645;27;97774;-69
2023/12/29 04:29:34;;;;;;;1.23;0.77;;;;;;;11.66;66.88;100314.28;5025222;27;98951;-69
2023/12/29 04:32:00;;;;;;;2.35;0.82;;;;;;;11.69;66.63;100312.34;5017873;27;96848;-69
2023/12/29 04:34:27;;;;;;;7.57;0.80;;;;;;;11.67;66.64;100308.06;5019189;27;96888;-69
2023/12/29 04:36:53;;;;;;;2.20;0.77;;;;;;;11.59;66.66;100317.22;5018303;27;98955;-69
2023/12/29 04:39:20;;;;;;;1.15;0.65;;;;;;;11.71;66.58;100307.84;5020652;27;98850;-70
2023/12/29 04:41:47;;;;;;;3.25;0.50;;;;;;;11.66;67.01;100303.69;5020143;27;96784;-70
2023/12/29 04:44:13;;;;;;;1.23;0.60;;;;;;;11.73;66.47;100302.50;5028202;27;97191;-70
2023/12/29 04:46:40;;;;;;;0.73;0.45;;;;;;;11.48;67.42;100300.13;5020849;27;98906;-70
2023/12/29 04:49:06;;;;;;;0.80;0.50;;;;;;;11.65;67.10;100308.13;5028265;27;99308;-71
2023/12/29 04:51:32;;;;;;;0.85;0.55;;;;;;;11.47;67.54;100307.22;5029025;27;97302;-70
2023/12/29 04:53:59;;;;;;;1.77;0.80;;;;;;;11.45;67.84;100285.25;5026432;27;97515;-69
2023/12/29 04:56:25;;;;;;;0.63;0.40;;;;;;;11.29;68.36;100288.69;5024029;27;99712;-69
2023/12/29 04:58:53;;;;;;;4.47;0.93;;;;;;;11.53;68.21;100284.91;5022664;27;98927;-69
2023/12/29 05:01:19;;;;;;;4.13;0.52;;;;;;;11.34;69.06;100289.31;5023576;27;97626;-70
2023/12/29 05:03:46;;;;;;;1.90;0.75;;;;;;;11.59;67.92;100281.97;5019729;27;97002;-69
2023/12/29 05:06:12;;;;;;;1.65;0.68;;;;;;;11.58;68.07;100290.81;5019338;27;99151;-69
2023/12/29 05:08:39;;;;;;;0.55;0.30;;;;;;;11.27;69.03;100296.69;5029981;27;99079;-69
2023/12/29 05:11:05;;;;;;;3.45;0.60;;;;;;;11.39;69.28;100285.53;5021573;27;97313;-69
2023/12/29 05:13:31;;;;;;;0.77;0.73;;;;;;;11.08;70.47;100282.56;5019523;27;97257;-69
2023/12/29 05:15:59;;;;;;;1.83;0.85;;;;;;;11.25;69.88;100290.59;5022675;27;102014;-70
2023/12/29 05:18:26;;;;;;;2.90;0.50;;;;;;;11.01;71.31;100289.06;4979797;27;1087458;-70
2023/12/29 05:20:53;;;;;;;3.40;0.60;;;;;;;11.37;69.86;100291.81;5031168;27;96840;-69
2023/12/29 05:23:20;;;;;;;2.10;0.90;;;;;;;11.55;68.93;100283.06;5020910;27;97289;-69
2023/12/29 05:25:46;;;;;;;1.45;0.60;;;;;;;11.47;69.18;100288.69;5022534;27;100747;-69
2023/12/29 05:28:13;;;;;;;1.27;0.38;;;;;;;11.65;68.72;100284.31;5029515;27;99151;-71
2023/12/29 05:30:40;;;;;;;1.95;0.40;;;;;;;11.26;69.96;100286.16;5018246;27;97504;-69
2023/12/29 05:33:07;;;;;;;0.98;0.40;;;;;;;11.34;69.90;100284.91;5020094;27;97073;-68
2023/12/29 05:35:33;;;;;;;2.00;0.50;;;;;;;11.51;69.41;100292.91;5031163;27;100216;-67
2023/12/29 05:38:00;;;;;;;2.33;0.47;;;;;;;11.43;69.97;100304.75;5026386;27;99029;-68
2023/12/29 05:40:26;;;;;;;3.55;0.68;;;;;;;11.50;69.52;100277.09;5024620;27;96807;-67
2023/12/29 05:42:53;;;;;;;1.70;0.43;;;;;;;11.72;68.79;100282.25;5031199;27;96765;-68
2023/12/29 05:45:19;;;;;;;1.05;0.30;;;;;;;11.77;68.27;100280.25;5023020;27;99460;-69
2023/12/29 05:47:45;;;;;;;1.25;0.50;;;;;;;11.73;68.38;100289.25;5024318;27;99337;-69
2023/12/29 05:50:13;;;;;;;2.78;0.50;;;;;;;11.53;69.23;100288.41;5028073;27;96914;-69
2023/12/29 05:52:40;;;;;;;0.55;0.32;;;;;;;11.67;69.15;100295.69;5022835;27;97770;-68
2023/12/29 05:55:06;;;;;;;1.45;0.55;;;;;;;11.64;68.74;100290.53;5026142;27;100183;-68
2023/12/29 05:57:33;;;;;;;1.88;0.50;;;;;;;11.63;69.05;100288.81;5025637;27;99777;-69
2023/12/29 05:59:59;;;;;;;5.50;0.80;;;;;;;11.42;69.46;100272.16;5017712;28;98432;-69
2023/12/29 06:02:25;;;;;;;1.80;0.40;;;;;;;11.61;69.08;100284.53;5025614;27;96825;-69
2023/12/29 06:04:52;;;;;;;0.50;0.40;;;;;;;11.77;68.46;100265.22;5029182;27;99783;-69
2023/12/29 06:07:19;;;;;;;0.77;0.45;;;;;;;11.83;67.77;100264.94;5020372;27;97668;-69
2023/12/29 06:09:46;;;;;;;2.35;0.68;;;;;;;12.13;66.76;100265.25;5031089;27;97225;-70
2023/12/29 06:12:12;;;;;;;1.17;0.57;;;;;;;12.13;66.29;100259.09;5027284;27;96863;-69
2023/12/29 06:14:39;;;;;;;0.85;0.50;;;;;;;11.69;67.76;100266.50;5025006;27;98936;-69
2023/12/29 06:17:05;;;;;;;1.88;0.80;;;;;;;11.96;67.11;100258.13;5021869;27;98149;-69
2023/12/29 06:19:32;;;;;;;1.58;0.50;;;;;;;12.06;66.61;100261.19;5027355;27;96838;-70
2023/12/29 06:21:59;;;;;;;1.67;0.60;;;;;;;12.05;66.05;100248.88;5025878;27;98827;-69
2023/12/29 06:24:27;;;;;;;1.15;0.50;;;;;;;11.91;66.66;100261.94;5027904;27;102742;-69
2023/12/29 06:26:53;;;;;;;1.55;0.60;;;;;;;12.24;65.43;100264.72;5022202;27;99120;-69
2023/12/29 06:29:20;;;;;;;2.17;0.65;;;;;;;12.10;65.59;100262.75;5026638;27;97289;-69
2023/12/29 06:31:46;;;;;;;1.35;0.40;;;;;;;11.95;65.88;100280.22;5031519;27;97087;-69
2023/12/29 06:34:13;;;;;;;0.82;0.35;;;;;;;11.37;68.00;100303.25;5029827;27;97997;-69
2023/12/29 06:36:39;;;;;;;1.27;0.45;;;;;;;11.34;68.91;100303.41;5025279;27;101926;-69
2023/12/29 06:39:05;;;;;;;2.05;0.60;;;;;;;11.52;68.19;100314.94;5020937;27;96792;-69
2023/12/29 06:41:33;;;;;;;2.80;0.50;;;;;;;11.61;67.87;100306.56;5023532;27;96906;-69
2023/12/29 06:44:00;;;;;;;3.20;0.70;;;;;;;11.85;66.97;100284.25;5018312;27;98364;-69
2023/12/29 06:46:26;;;;;;;2.60;0.52;;;;;;;11.59;67.59;100303.13;5025437;27;100701;-70
2023/12/29 06:48:52;;;;;;;1.60;0.52;;;;;;;11.67;67.77;100294.84;5024572;27;96736;-70
2023/12/29 06:51:19;;;;;;;1.40;0.50;;;;;;;11.78;67.24;100282.84;5025465;27;98742;-70
2023/12/29 06:53:47;;;;;;;1.00;0.60;;;;;;;11.69;67.62;100292.97;5022851;27;99253;-70
2023/12/29 06:56:14;;;;;;;1.88;0.70;;;;;;;11.82;67.18;100278.25;5028056;27;101369;-71
2023/12/29 06:58:42;;;;;;;3.08;0.85;;;;;;;11.62;67.78;100278.31;5027275;27;100597;-69
2023/12/29 07:01:08;;;;;;;1.00;0.70;;;;;;;11.40;68.79;100289.91;5018993;27;97163;-69
2023/12/29 07:03:35;;;;;;;3.20;0.63;;;;;;;11.40;68.83;100278.47;5023999;27;100983;-69
2023/12/29 07:06:04;;;;;;;1.35;0.50;;;;;;;11.77;67.74;100275.81;5023980;27;98966;-70
2023/12/29 07:08:30;;;;;;;2.25;0.82;;;;;;;11.35;69.07;100276.03;5025766;27;97314;-71
2023/12/29 07:10:57;;;;;;;3.97;0.70;;;;;;;11.42;68.76;100288.03;5026561;27;96887;-70
2023/12/29 07:13:23;;;;;;;2.63;0.70;;;;;;;11.51;68.59;100299.97;5011351;27;99389;-71
2023/12/29 07:15:51;;;;;;;1.55;0.50;;;;;;;11.48;69.00;100295.72;5023161;27;100528;-70
2023/12/29 07:18:17;;;;;;;1.80;0.73;;;;;;;11.61;68.61;100296.00;5018520;27;96902;-71
2023/12/29 07:20:44;;;;;;;3.15;0.63;;;;;;;11.57;68.78;100303.19;5025630;27;97023;-71
2023/12/29 07:23:10;;;;;;;1.95;0.70;;;;;;;11.95;67.40;100296.13;5031764;27;99043;-71
2023/12/29 07:25:37;;;;;;;4.05;0.70;;;;;;;11.54;68.63;100295.41;5026556;27;98705;-71
2023/12/29 07:28:03;;;;;;;3.17;0.60;;;;;;;11.45;69.01;100300.25;5024321;27;96820;-71
2023/12/29 07:30:30;;;;;;;2.38;0.80;;;;;;;11.43;69.24;100308.25;5019227;27;97389;-71
2023/12/29 07:32:58;;;;;;;0.98;0.50;;;;;;;11.36;69.37;100298.88;5024841;27;99016;-72
2023/12/29 07:35:25;;;;;;;1.27;0.60;;;;;;;11.63;68.46;100301.19;5027535;27;99997;-70
2023/12/29 07:37:51;;;;;;;3.58;0.90;;;;;;;11.78;67.90;100309.31;5018000;27;97237;-70
2023/12/29 07:40:18;;;;;;;2.13;0.57;;;;;;;11.63;68.88;100303.84;5016959;27;97155;-70
2023/12/29 07:42:50;;;;;;;0.60;0.60;;;;;;;11.95;67.75;100308.50;5020810;27;99562;-70
2023/12/29 07:45:16;;;;;;;2.15;0.70;;;;;;;12.05;67.14;100307.13;5027305;27;99637;-69
2023/12/29 07:47:43;;;;;;;3.67;0.70;;;;;;;12.11;66.48;100301.53;5023251;27;97235;-69
2023/12/29 07:50:11;;;;;;;2.95;0.82;;;;;;;11.46;68.97;100296.69;5021356;27;96827;-69
2023/12/29 07:52:37;;;;;;;3.40;0.60;;;;;;;11.96;67.74;100302.28;5030593;27;97829;-70
2023/12/29 07:55:04;;;;;;;1.27;0.57;;;;;;;11.92;67.46;100317.47;5028251;27;100751;-69
2023/12/29 07:57:31;;;;;;;3.20;0.70;;;;;;;11.86;67.82;100308.94;5023839;27;97319;-69
2023/12/29 07:59:58;;;;;;;4.38;0.98;;;;;;;11.72;68.41;100312.22;5023746;27;97244;-70
2023/12/29 08:02:24;;;;;;;2.08;0.60;;;;;;;11.69;68.73;100308.84;5021849;27;101929;-70
2023/12/29 08:04:51;;;;;;;3.10;1.08;;;;;;;12.04;67.62;100317.78;5033722;27;101377;-70
2023/12/29 08:07:19;;;;;;;1.70;0.80;;;;;;;12.33;66.40;100310.16;5024949;27;96734;-70
2023/12/29 08:09:45;;;;;;;2.80;0.82;;;;;;;12.17;66.77;100318.91;5024484;27;97706;-72
2023/12/29 08:12:11;;;;;;;7.00;0.80;;;;;;;12.33;65.64;100319.91;5025822;27;98818;-69
2023/12/29 08:14:38;;;;;;;2.00;0.70;;;;;;;12.14;66.44;100327.84;5021667;27;99345;-70
2023/12/29 08:17:04;;;;;;;2.17;0.70;;;;;;;11.82;67.63;100333.84;5014029;27;97880;-69
2023/12/29 08:19:31;;;;;;;3.80;0.80;;;;;;;12.19;66.89;100322.34;5013127;27;97822;-70
2023/12/29 08:22:00;;;;;;;3.97;0.65;;;;;;;12.12;66.93;100308.56;5009169;27;102531;-69
2023/12/29 08:24:27;;;;;;;0.85;0.50;;;;;;;11.92;67.53;100317.47;5022273;27;98250;-71
2023/12/29 08:26:54;;;;;;;4.60;0.73;;;;;;;11.92;67.61;100317.47;5028934;27;97161;-70
2023/12/29 08:29:20;;;;;;;3.17;0.43;;;;;;;12.11;67.49;100313.91;5030874;27;97302;-70
2023/12/29 08:31:47;;;;;;;2.53;0.70;;;;;;;12.35;66.61;100324.16;5031828;27;98903;-70
2023/12/29 08:34:15;;;;;;;1.02;0.52;;;;;;;12.31;66.25;100327.06;5029299;27;98817;-70
2023/12/29 08:36:41;;;;;;;2.88;0.60;;;;;;;12.45;65.86;100319.28;5022212;27;96885;-70
2023/12/29 08:39:09;;;;;;;4.05;0.63;;;;;;;12.99;63.85;100323.56;5030570;27;97391;-68
2023/12/29 08:41:36;;;;;;;2.38;0.80;;;;;;;12.48;65.51;100347.41;5029939;27;99181;-70
2023/12/29 08:44:03;;;;;;;3.05;0.70;;;;;;;12.23;66.55;100331.84;5030341;27;98761;-69
2023/12/29 08:46:30;;;;;;;2.67;0.60;;;;;;;12.34;66.67;100333.03;5032327;27;97593;-69
2023/12/29 08:49:00;;;;;;;1.50;0.70;;;;;;;12.55;65.28;100340.88;5030605;28;99676;-69
2023/12/29 08:51:27;;;;;;;3.05;0.82;;;;;;;12.53;65.71;100329.50;5029224;27;98276;-70
2023/12/29 08:53:53;;;;;;;3.53;0.65;;;;;;;12.12;66.69;100321.81;5018244;27;99076;-71
2023/12/29 08:56:20;;;;;;;4.78;0.80;;;;;;;12.13;66.97;100320.88;5018183;27;98871;-69
2023/12/29 08:58:47;;;;;;;3.55;0.77;;;;;;;12.36;66.17;100301.19;5025046;27;96864;-68
2023/12/29 09:01:14;;;;;;;1.75;0.60;;;;;;;11.98;68.04;100322.47;5024305;27;98899;-70
2023/12/29 09:03:40;;;;;;;37.20;2.30;;;;;;;12.16;67.40;100326.00;5015830;27;98795;-68
2023/12/29 09:06:08;;;;;;;2.08;0.80;;;;;;;11.96;68.42;100328.75;5023069;27;96910;-70
2023/12/29 09:08:35;;;;;;;2.63;0.73;;;;;;;12.02;67.87;100332.88;5025271;27;97374;-72
2023/12/29 09:11:01;;;;;;;4.95;0.82;;;;;;;12.24;67.64;100328.28;5024473;27;98963;-72
2023/12/29 09:13:28;;;;;;;6.40;0.82;;;;;;;12.34;66.89;100326.88;5023393;27;101132;-73
2023/12/29 09:15:57;;;;;;;6.32;1.58;;;;;;;12.58;66.09;100328.34;5024423;27;97013;-72
2023/12/29 09:18:23;;;;;;;4.15;0.70;;;;;;;12.31;67.07;100337.66;5027284;27;96839;-72
2023/12/29 09:20:50;;;;;;;4.07;0.85;;;;;;;12.29;67.07;100326.25;5023205;27;99139;-72
2023/12/29 09:23:16;;;;;;;6.85;1.02;;;;;;;12.29;66.98;100329.78;5019451;27;99716;-72
2023/12/29 09:25:43;;;;;;;2.50;0.70;;;;;;;12.18;67.82;100341.81;5021613;27;96889;-73
2023/12/29 09:28:09;;;;;;;3.60;0.60;;;;;;;12.49;66.71;100349.13;5023078;27;97596;-72
2023/12/29 09:30:36;;;;;;;4.30;0.80;;;;;;;12.17;67.54;100327.72;5020024;27;98952;-74
2023/12/29 09:33:04;;;;;;;5.22;0.85;;;;;;;12.34;67.33;100340.13;5021877;28;98872;-72
2023/12/29 09:35:31;;;;;;;3.35;0.60;;;;;;;12.29;67.19;100337.72;5027433;27;97076;-72
2023/12/29 09:37:58;;;;;;;5.53;0.80;;;;;;;13.04;64.83;100334.81;5023443;27;96780;-72
2023/12/29 09:40:25;;;;;;;3.25;0.82;;;;;;;13.23;63.43;100333.84;5026689;27;99094;-71
2023/12/29 09:42:52;;;;;;;2.83;0.80;;;;;;;13.14;63.17;100341.34;5024210;27;101527;-72
2023/12/29 09:45:25;;;;;;;2.45;1.20;;;;;;;13.10;62.89;100336.28;5022960;27;96787;-73
2023/12/29 09:47:53;;;;;;;5.35;0.80;;;;;;;12.68;64.93;100352.56;5023273;27;96950;-73
2023/12/29 09:50:22;;;;;;;2.92;0.73;;;;;;;13.07;63.70;100341.72;5030783;27;99787;-71
2023/12/29 09:52:50;;;;;;;1.23;0.63;;;;;;;13.28;62.29;100342.44;5027327;27;99135;-71
2023/12/29 09:55:17;;;;;;;2.85;0.85;;;;;;;12.71;64.97;100342.69;5032310;27;96905;-71
2023/12/29 09:57:44;;;;;;;2.80;1.02;;;;;;;12.88;64.45;100344.47;5029015;27;96750;-73
2023/12/29 10:00:12;;;;;;;7.15;1.35;;;;;;;12.94;64.21;100332.69;5028651;27;98974;-72
2023/12/29 10:02:39;;;;;;;4.13;0.73;;;;;;;13.10;63.31;100341.56;5030742;27;99351;-73
2023/12/29 10:05:09;;;;;;;3.03;0.98;;;;;;;13.20;62.68;100337.53;5025200;27;97209;-72
2023/12/29 10:07:39;;;;;;;2.92;0.70;;;;;;;13.23;62.83;100326.75;5022911;27;96799;-73
2023/12/29 10:10:07;;;;;;;3.40;0.80;;;;;;;12.86;63.99;100326.94;5026049;27;99963;-72
2023/12/29 10:12:35;;;;;;;2.38;0.70;;;;;;;12.69;64.50;100320.69;5026080;27;99075;-72
2023/12/29 10:15:08;;;;;;;4.85;1.02;;;;;;;12.97;63.61;100329.88;5028280;27;96721;-73
2023/12/29 10:17:42;;;;;;;4.03;0.80;;;;;;;12.69;64.64;100333.09;5030342;27;97122;-71
2023/12/29 10:20:17;;;;;;;3.33;1.42;;;;;;;13.15;62.60;100332.47;5022793;27;99777;-71
2023/12/29 10:22:52;;;;;;;7.80;0.85;;;;;;;12.72;64.54;100322.34;5030110;27;101385;-72
2023/12/29 10:25:19;;;;;;;3.05;0.60;;;;;;;12.95;63.45;100326.44;5030663;27;96880;-72
2023/12/29 10:27:46;;;;;;;5.65;1.10;;;;;;;13.43;62.10;100310.63;5023835;27;96929;-71
2023/12/29 10:30:13;;;;;;;4.80;1.38;;;;;;;13.85;59.97;100304.75;5025209;27;98134;-72
2023/12/29 10:32:40;;;;;;;4.38;0.85;;;;;;;13.31;61.30;100302.47;5028027;27;99147;-71
2023/12/29 10:35:10;;;;;;;3.70;0.70;;;;;;;13.16;62.15;100290.88;5020658;27;97871;-71
2023/12/29 10:37:37;;;;;;;2.60;0.80;;;;;;;13.39;60.97;100293.13;5024630;27;97265;-71
2023/12/29 10:40:07;;;;;;;4.50;0.70;;;;;;;13.36;61.13;100292.47;5022290;27;99078;-71
2023/12/29 10:42:33;;;;;;;1.52;0.60;;;;;;;13.29;60.96;100289.28;5032993;27;99164;-72
2023/12/29 10:45:07;;;;;;;2.70;0.70;;;;;;;13.19;61.77;100308.44;5026488;27;97241;-70
2023/12/29 10:47:35;;;;;;;3.38;0.65;;;;;;;13.41;60.54;100309.84;5021866;27;96928;-71
2023/12/29 10:50:03;;;;;;;4.88;0.75;;;;;;;13.26;61.35;100315.13;5030208;27;99165;-71
2023/12/29 10:52:30;;;;;;;4.38;1.10;;;;;;;13.10;61.54;100299.13;5024535;27;98830;-72
2023/12/29 10:55:07;;;;;;;6.38;0.80;;;;;;;13.44;60.81;100308.84;5027076;27;96853;-72
2023/12/29 10:57:33;;;;;;;2.35;0.70;;;;;;;13.69;59.16;100309.22;5026173;27;96769;-72
2023/12/29 11:00:01;;;;;;;4.43;0.93;;;;;;;13.42;59.91;100305.41;5026057;27;98385;-71
2023/12/29 11:02:27;;;;;;;2.83;1.17;;;;;;;12.94;61.69;100314.13;5028745;27;99039;-72
2023/12/29 11:05:02;;;;;;;4.32;1.42;;;;;;;12.95;62.36;100315.84;5023242;27;97389;-71
2023/12/29 11:07:34;;;;;;;1.95;1.05;;;;;;;13.11;61.36;100312.31;5028316;27;96917;-72
2023/12/29 11:10:02;;;;;;;3.75;0.88;;;;;;;13.68;59.74;100312.81;5027616;27;98238;-72
2023/12/29 11:12:32;;;;;;;4.03;0.80;;;;;;;13.67;59.33;100303.13;5028579;27;101307;-72
2023/12/29 11:14:59;;;;;;;5.90;1.38;;;;;;;13.20;60.55;100323.41;5027030;27;97391;-71
2023/12/29 11:17:27;;;;;;;7.15;0.98;;;;;;;13.28;60.73;100319.41;5023340;27;96825;-71
2023/12/29 11:19:53;;;;;;;7.18;0.90;;;;;;;12.98;61.72;100321.84;5027926;27;98951;-71
2023/12/29 11:22:22;;;;;;;4.00;0.95;;;;;;;13.44;60.02;100307.03;5028296;27;100262;-72
2023/12/29 11:24:48;;;;;;;4.25;0.90;;;;;;;13.88;58.60;100306.38;5028813;27;97009;-73